sensor_id;sensor_type;location;lat;lon;timestamp;pressure;altitude;pressure_sealevel;temperature;humidity
38612;BME280;24368;52.156;20.788;2023-02-12T00:01:15;101692.10;;;1.78;100.00
38612;BME280;24368;52.156;20.788;2023-02-12T00:06:17;101702.13;;;1.79;100.00
38612;BME280;24368;52.156;20.788;2023-02-12T00:11:25;101707.10;;;1.81;100.00
38612;BME280;24368;52.156;20.788;2023-02-12T00:16:28;101716.85;;;1.77;100.00
38612;BME280;24368;52.156;20.788;2023-02-12T00:21:30;101719.06;;;1.73;100.00
38612;BME280;24368;52.156;20.788;2023-02-12T00:26:32;101737.34;;;1.68;100.00
38612;BME280;24368;52.156;20.788;2023-02-12T00:31:36;101748.86;;;1.62;100.00
38612;BME280;24368;52.156;20.788;2023-02-12T00:36:38;101759.78;;;1.63;100.00
38612;BME280;24368;52.156;20.788;2023-02-12T00:41:40;101768.44;;;1.59;100.00
38612;BME280;24368;52.156;20.788;2023-02-12T00:46:42;101770.77;;;1.53;100.00
38612;BME280;24368;52.156;20.788;2023-02-12T00:51:43;101780.90;;;1.48;100.00
38612;BME280;24368;52.156;20.788;2023-02-12T00:56:45;101791.98;;;1.39;100.00
38612;BME280;24368;52.156;20.788;2023-02-12T01:01:47;101800.53;;;1.39;100.00
38612;BME280;24368;52.156;20.788;2023-02-12T01:06:50;101799.63;;;1.44;100.00
38612;BME280;24368;52.156;20.788;2023-02-12T01:11:52;101810.45;;;1.51;100.00
38612;BME280;24368;52.156;20.788;2023-02-12T01:16:54;101823.39;;;1.53;100.00
38612;BME280;24368;52.156;20.788;2023-02-12T01:21:55;101830.38;;;1.48;100.00
38612;BME280;24368;52.156;20.788;2023-02-12T01:26:57;101835.92;;;1.35;100.00
38612;BME280;24368;52.156;20.788;2023-02-12T01:31:59;101843.71;;;1.27;100.00
38612;BME280;24368;52.156;20.788;2023-02-12T01:37:01;101843.73;;;1.26;100.00
38612;BME280;24368;52.156;20.788;2023-02-12T01:42:03;101848.91;;;1.22;100.00
38612;BME280;24368;52.156;20.788;2023-02-12T01:47:16;101859.13;;;1.18;100.00
38612;BME280;24368;52.156;20.788;2023-02-12T01:52:31;101857.98;;;1.11;100.00
38612;BME280;24368;52.156;20.788;2023-02-12T01:57:38;101858.15;;;1.16;100.00
38612;BME280;24368;52.156;20.788;2023-02-12T02:02:43;101873.59;;;1.26;100.00
38612;BME280;24368;52.156;20.788;2023-02-12T02:07:46;101885.33;;;1.28;100.00
38612;BME280;24368;52.156;20.788;2023-02-12T02:12:48;101890.81;;;1.30;100.00
38612;BME280;24368;52.156;20.788;2023-02-12T02:18:39;101901.31;;;1.23;100.00
38612;BME280;24368;52.156;20.788;2023-02-12T02:29:13;101913.37;;;1.11;100.00
38612;BME280;24368;52.156;20.788;2023-02-12T02:35:09;101921.26;;;0.99;100.00
38612;BME280;24368;52.156;20.788;2023-02-12T02:40:13;101940.23;;;0.98;100.00
38612;BME280;24368;52.156;20.788;2023-02-12T02:45:27;101945.65;;;0.96;100.00
38612;BME280;24368;52.156;20.788;2023-02-12T02:50:34;101957.95;;;0.97;100.00
38612;BME280;24368;52.156;20.788;2023-02-12T02:55:43;101963.95;;;1.09;100.00
38612;BME280;24368;52.156;20.788;2023-02-12T03:05:54;101998.20;;;1.07;100.00
38612;BME280;24368;52.156;20.788;2023-02-12T03:11:06;102007.95;;;1.02;100.00
38612;BME280;24368;52.156;20.788;2023-02-12T03:16:20;102022.98;;;0.93;100.00
38612;BME280;24368;52.156;20.788;2023-02-12T03:21:28;102035.00;;;0.92;100.00
38612;BME280;24368;52.156;20.788;2023-02-12T03:26:46;102050.27;;;0.87;100.00
38612;BME280;24368;52.156;20.788;2023-02-12T03:32:16;102051.32;;;0.81;100.00
38612;BME280;24368;52.156;20.788;2023-02-12T03:37:29;102058.31;;;0.79;100.00
38612;BME280;24368;52.156;20.788;2023-02-12T03:42:57;102065.00;;;0.82;100.00
38612;BME280;24368;52.156;20.788;2023-02-12T03:48:09;102070.49;;;0.89;100.00
38612;BME280;24368;52.156;20.788;2023-02-12T03:53:13;102081.08;;;0.95;99.98
38612;BME280;24368;52.156;20.788;2023-02-12T03:58:19;102094.29;;;0.93;100.00
38612;BME280;24368;52.156;20.788;2023-02-12T04:03:22;102112.42;;;0.91;100.00
38612;BME280;24368;52.156;20.788;2023-02-12T04:08:26;102116.60;;;0.85;100.00
38612;BME280;24368;52.156;20.788;2023-02-12T04:14:12;102119.11;;;0.77;100.00
38612;BME280;24368;52.156;20.788;2023-02-12T04:19:12;102114.10;;;0.70;100.00
38612;BME280;24368;52.156;20.788;2023-02-12T04:40:09;102131.30;;;0.70;100.00
38612;BME280;24368;52.156;20.788;2023-02-12T04:45:23;102134.04;;;0.77;100.00
38612;BME280;24368;52.156;20.788;2023-02-12T04:50:26;102135.09;;;0.77;100.00
38612;BME280;24368;52.156;20.788;2023-02-12T04:55:35;102143.92;;;0.71;100.00
38612;BME280;24368;52.156;20.788;2023-02-12T05:00:37;102153.11;;;0.66;100.00
38612;BME280;24368;52.156;20.788;2023-02-12T05:05:39;102158.48;;;0.60;100.00
38612;BME280;24368;52.156;20.788;2023-02-12T05:10:41;102171.53;;;0.59;100.00
38612;BME280;24368;52.156;20.788;2023-02-12T05:15:42;102181.59;;;0.53;100.00
38612;BME280;24368;52.156;20.788;2023-02-12T05:20:44;102191.98;;;0.53;100.00
38612;BME280;24368;52.156;20.788;2023-02-12T05:25:46;102190.73;;;0.60;100.00
38612;BME280;24368;52.156;20.788;2023-02-12T05:30:48;102202.71;;;0.66;100.00
38612;BME280;24368;52.156;20.788;2023-02-12T05:35:50;102205.16;;;0.65;100.00
38612;BME280;24368;52.156;20.788;2023-02-12T05:40:51;102216.77;;;0.60;100.00
38612;BME280;24368;52.156;20.788;2023-02-12T05:45:53;102234.38;;;0.57;100.00
38612;BME280;24368;52.156;20.788;2023-02-12T05:51:03;102249.29;;;0.50;100.00
38612;BME280;24368;52.156;20.788;2023-02-12T06:06:16;102270.79;;;0.45;100.00
38612;BME280;24368;52.156;20.788;2023-02-12T06:11:18;102281.80;;;0.41;100.00
38612;BME280;24368;52.156;20.788;2023-02-12T06:16:23;102287.81;;;0.37;100.00
38612;BME280;24368;52.156;20.788;2023-02-12T06:21:26;102298.77;;;0.36;100.00
38612;BME280;24368;52.156;20.788;2023-02-12T06:26:28;102301.81;;;0.45;100.00
38612;BME280;24368;52.156;20.788;2023-02-12T06:31:33;102317.69;;;0.55;100.00
38612;BME280;24368;52.156;20.788;2023-02-12T06:36:37;102322.73;;;0.54;100.00
38612;BME280;24368;52.156;20.788;2023-02-12T06:41:40;102331.13;;;0.51;100.00
38612;BME280;24368;52.156;20.788;2023-02-12T06:46:42;102325.67;;;0.48;100.00
38612;BME280;24368;52.156;20.788;2023-02-12T06:51:44;102333.77;;;0.37;100.00
38612;BME280;24368;52.156;20.788;2023-02-12T06:56:46;102344.55;;;0.35;100.00
38612;BME280;24368;52.156;20.788;2023-02-12T07:01:48;102343.33;;;0.36;100.00
38612;BME280;24368;52.156;20.788;2023-02-12T07:06:50;102349.31;;;0.26;98.57
38612;BME280;24368;52.156;20.788;2023-02-12T07:11:52;102352.05;;;0.27;98.97
38612;BME280;24368;52.156;20.788;2023-02-12T07:16:56;102359.15;;;0.27;99.66
38612;BME280;24368;52.156;20.788;2023-02-12T07:21:58;102363.79;;;0.29;99.67
38612;BME280;24368;52.156;20.788;2023-02-12T07:27:00;102370.33;;;0.32;99.82
38612;BME280;24368;52.156;20.788;2023-02-12T07:32:02;102368.38;;;0.33;99.09
38612;BME280;24368;52.156;20.788;2023-02-12T07:37:04;102369.15;;;0.36;97.09
38612;BME280;24368;52.156;20.788;2023-02-12T07:42:07;102364.30;;;0.43;97.17
38612;BME280;24368;52.156;20.788;2023-02-12T07:47:09;102369.42;;;0.39;96.07
38612;BME280;24368;52.156;20.788;2023-02-12T07:52:11;102369.18;;;0.28;95.97
38612;BME280;24368;52.156;20.788;2023-02-12T07:57:13;102374.39;;;0.28;96.42
38612;BME280;24368;52.156;20.788;2023-02-12T08:02:15;102390.77;;;0.25;95.87
38612;BME280;24368;52.156;20.788;2023-02-12T08:07:17;102398.21;;;0.25;96.28
38612;BME280;24368;52.156;20.788;2023-02-12T08:12:18;102401.75;;;0.29;96.11
38612;BME280;24368;52.156;20.788;2023-02-12T08:17:20;102408.20;;;0.27;96.10
38612;BME280;24368;52.156;20.788;2023-02-12T08:22:22;102413.88;;;0.30;95.51
38612;BME280;24368;52.156;20.788;2023-02-12T08:27:24;102417.81;;;0.32;95.18
38612;BME280;24368;52.156;20.788;2023-02-12T08:32:26;102421.33;;;0.30;95.40
38612;BME280;24368;52.156;20.788;2023-02-12T08:37:29;102420.00;;;0.27;95.48
38612;BME280;24368;52.156;20.788;2023-02-12T08:42:31;102420.64;;;0.30;95.22
38612;BME280;24368;52.156;20.788;2023-02-12T08:47:33;102418.67;;;0.39;95.57
38612;BME280;24368;52.156;20.788;2023-02-12T08:52:35;102414.58;;;0.50;95.40
38612;BME280;24368;52.156;20.788;2023-02-12T08:57:36;102411.35;;;0.61;95.20
38612;BME280;24368;52.156;20.788;2023-02-12T09:02:38;102404.31;;;0.65;95.53
38612;BME280;24368;52.156;20.788;2023-02-12T09:07:40;102408.46;;;0.52;95.20
38612;BME280;24368;52.156;20.788;2023-02-12T09:12:42;102424.71;;;0.54;95.29
38612;BME280;24368;52.156;20.788;2023-02-12T09:17:44;102428.40;;;0.59;95.66
38612;BME280;24368;52.156;20.788;2023-02-12T09:22:45;102428.45;;;0.63;95.37
38612;BME280;24368;52.156;20.788;2023-02-12T09:27:47;102429.09;;;0.80;94.78
38612;BME280;24368;52.156;20.788;2023-02-12T09:32:49;102433.41;;;1.00;93.61
38612;BME280;24368;52.156;20.788;2023-02-12T09:37:52;102435.38;;;1.11;92.32
38612;BME280;24368;52.156;20.788;2023-02-12T09:53:49;102453.67;;;1.21;94.80
38612;BME280;24368;52.156;20.788;2023-02-12T09:58:59;102459.37;;;1.16;96.05
38612;BME280;24368;52.156;20.788;2023-02-12T10:04:03;102456.93;;;1.47;95.58
38612;BME280;24368;52.156;20.788;2023-02-12T10:24:39;102454.55;;;1.70;95.43
38612;BME280;24368;52.156;20.788;2023-02-12T10:29:46;102460.13;;;1.69;93.24
38612;BME280;24368;52.156;20.788;2023-02-12T10:34:49;102461.55;;;1.79;94.14
38612;BME280;24368;52.156;20.788;2023-02-12T10:39:59;102463.66;;;1.67;94.13
38612;BME280;24368;52.156;20.788;2023-02-12T10:45:04;102453.60;;;1.84;93.80
38612;BME280;24368;52.156;20.788;2023-02-12T10:50:21;102455.83;;;1.67;94.31
38612;BME280;24368;52.156;20.788;2023-02-12T10:55:27;102458.80;;;1.95;93.19
38612;BME280;24368;52.156;20.788;2023-02-12T11:00:35;102453.05;;;2.29;93.53
38612;BME280;24368;52.156;20.788;2023-02-12T11:05:40;102454.42;;;2.02;92.29
38612;BME280;24368;52.156;20.788;2023-02-12T11:10:42;102453.71;;;2.30;92.39
38612;BME280;24368;52.156;20.788;2023-02-12T11:15:48;102449.33;;;2.21;93.81
38612;BME280;24368;52.156;20.788;2023-02-12T11:20:53;102448.11;;;2.42;93.06
38612;BME280;24368;52.156;20.788;2023-02-12T11:26:00;102459.66;;;2.46;89.28
38612;BME280;24368;52.156;20.788;2023-02-12T11:36:28;102458.59;;;4.38;79.38
38612;BME280;24368;52.156;20.788;2023-02-12T11:41:31;102447.80;;;7.44;67.16
38612;BME280;24368;52.156;20.788;2023-02-12T11:46:37;102438.14;;;8.84;61.07
38612;BME280;24368;52.156;20.788;2023-02-12T11:51:40;102427.25;;;9.72;57.30
38612;BME280;24368;52.156;20.788;2023-02-12T11:56:47;102426.84;;;10.25;54.64
38612;BME280;24368;52.156;20.788;2023-02-12T12:01:51;102425.69;;;10.93;53.17
38612;BME280;24368;52.156;20.788;2023-02-12T12:07:01;102425.02;;;9.96;53.85
38612;BME280;24368;52.156;20.788;2023-02-12T12:12:14;102426.04;;;10.13;54.37
38612;BME280;24368;52.156;20.788;2023-02-12T12:17:18;102423.42;;;10.21;53.41
38612;BME280;24368;52.156;20.788;2023-02-12T12:22:46;102424.96;;;10.16;54.32
38612;BME280;24368;52.156;20.788;2023-02-12T12:28:04;102422.73;;;10.12;53.52
38612;BME280;24368;52.156;20.788;2023-02-12T12:38:50;102409.03;;;6.89;62.98
38612;BME280;24368;52.156;20.788;2023-02-12T12:49:57;102396.67;;;5.51;69.44
38612;BME280;24368;52.156;20.788;2023-02-12T13:00:23;102384.13;;;5.69;69.71
38612;BME280;24368;52.156;20.788;2023-02-12T13:10:49;102391.55;;;7.01;65.15
38612;BME280;24368;52.156;20.788;2023-02-12T13:16:20;102388.44;;;6.83;66.16
38612;BME280;24368;52.156;20.788;2023-02-12T13:21:44;102392.86;;;6.86;65.82
38612;BME280;24368;52.156;20.788;2023-02-12T13:26:54;102393.46;;;6.98;65.96
38612;BME280;24368;52.156;20.788;2023-02-12T13:32:04;102393.49;;;6.64;67.82
38612;BME280;24368;52.156;20.788;2023-02-12T13:37:16;102393.61;;;5.68;70.33
38612;BME280;24368;52.156;20.788;2023-02-12T13:48:03;102383.88;;;5.63;73.16
38612;BME280;24368;52.156;20.788;2023-02-12T13:58:46;102392.27;;;4.41;80.39
38612;BME280;24368;52.156;20.788;2023-02-12T14:03:48;102388.02;;;3.87;84.13
38612;BME280;24368;52.156;20.788;2023-02-12T14:08:59;102379.66;;;4.08;84.43
38612;BME280;24368;52.156;20.788;2023-02-12T14:14:07;102382.40;;;4.01;84.13
38612;BME280;24368;52.156;20.788;2023-02-12T14:19:36;102388.17;;;3.88;84.84
38612;BME280;24368;52.156;20.788;2023-02-12T14:24:45;102382.23;;;3.79;85.62
38612;BME280;24368;52.156;20.788;2023-02-12T14:40:40;102380.48;;;3.10;91.25
38612;BME280;24368;52.156;20.788;2023-02-12T14:45:45;102376.98;;;3.25;90.87
38612;BME280;24368;52.156;20.788;2023-02-12T14:50:48;102371.77;;;2.96;91.74
38612;BME280;24368;52.156;20.788;2023-02-12T14:55:53;102378.19;;;2.82;92.96
38612;BME280;24368;52.156;20.788;2023-02-12T15:00:58;102379.73;;;2.58;94.71
38612;BME280;24368;52.156;20.788;2023-02-12T15:06:06;102380.71;;;2.49;96.43
38612;BME280;24368;52.156;20.788;2023-02-12T15:21:53;102388.09;;;2.10;100.00
38612;BME280;24368;52.156;20.788;2023-02-12T15:26:57;102383.73;;;2.06;100.00
38612;BME280;24368;52.156;20.788;2023-02-12T15:32:05;102384.95;;;1.89;100.00
38612;BME280;24368;52.156;20.788;2023-02-12T15:37:08;102394.09;;;1.80;100.00
38612;BME280;24368;52.156;20.788;2023-02-12T15:42:31;102398.64;;;1.68;100.00
38612;BME280;24368;52.156;20.788;2023-02-12T15:47:33;102401.70;;;1.58;100.00
38612;BME280;24368;52.156;20.788;2023-02-12T15:52:37;102403.60;;;1.47;100.00
38612;BME280;24368;52.156;20.788;2023-02-12T15:57:40;102403.56;;;1.48;100.00
38612;BME280;24368;52.156;20.788;2023-02-12T16:02:50;102398.33;;;1.49;100.00
38612;BME280;24368;52.156;20.788;2023-02-12T16:07:53;102404.46;;;1.41;100.00
38612;BME280;24368;52.156;20.788;2023-02-12T16:12:55;102397.22;;;1.28;100.00
38612;BME280;24368;52.156;20.788;2023-02-12T16:17:58;102390.38;;;1.24;100.00
38612;BME280;24368;52.156;20.788;2023-02-12T16:23:05;102387.36;;;1.08;100.00
38612;BME280;24368;52.156;20.788;2023-02-12T16:28:16;102391.27;;;1.05;100.00
38612;BME280;24368;52.156;20.788;2023-02-12T16:33:38;102395.14;;;1.09;100.00
38612;BME280;24368;52.156;20.788;2023-02-12T16:38:48;102391.50;;;1.15;100.00
38612;BME280;24368;52.156;20.788;2023-02-12T16:49:20;102374.94;;;0.92;100.00
38612;BME280;24368;52.156;20.788;2023-02-12T16:54:33;102376.48;;;0.81;100.00
38612;BME280;24368;52.156;20.788;2023-02-12T16:59:35;102374.85;;;0.77;100.00
38612;BME280;24368;52.156;20.788;2023-02-12T17:04:42;102372.70;;;0.73;100.00
38612;BME280;24368;52.156;20.788;2023-02-12T17:09:44;102374.13;;;0.71;100.00
38612;BME280;24368;52.156;20.788;2023-02-12T17:14:46;102371.88;;;0.71;100.00
38612;BME280;24368;52.156;20.788;2023-02-12T17:19:48;102371.92;;;0.69;100.00
38612;BME280;24368;52.156;20.788;2023-02-12T17:24:50;102374.80;;;0.79;100.00
38612;BME280;24368;52.156;20.788;2023-02-12T17:29:53;102376.52;;;0.80;100.00
38612;BME280;24368;52.156;20.788;2023-02-12T17:34:55;102388.55;;;0.64;100.00
38612;BME280;24368;52.156;20.788;2023-02-12T17:39:57;102395.67;;;0.50;100.00
38612;BME280;24368;52.156;20.788;2023-02-12T17:44:59;102390.98;;;0.51;100.00
38612;BME280;24368;52.156;20.788;2023-02-12T17:50:01;102399.97;;;0.38;100.00
38612;BME280;24368;52.156;20.788;2023-02-12T17:55:04;102410.23;;;0.30;100.00
38612;BME280;24368;52.156;20.788;2023-02-12T18:00:09;102412.98;;;0.38;100.00
38612;BME280;24368;52.156;20.788;2023-02-12T18:05:12;102410.94;;;0.50;100.00
38612;BME280;24368;52.156;20.788;2023-02-12T18:10:14;102409.06;;;0.55;100.00
38612;BME280;24368;52.156;20.788;2023-02-12T18:15:16;102406.93;;;0.64;100.00
38612;BME280;24368;52.156;20.788;2023-02-12T18:20:19;102402.20;;;0.66;100.00
38612;BME280;24368;52.156;20.788;2023-02-12T18:25:21;102392.95;;;0.81;100.00
38612;BME280;24368;52.156;20.788;2023-02-12T18:30:22;102384.42;;;0.88;100.00
38612;BME280;24368;52.156;20.788;2023-02-12T18:35:24;102379.95;;;0.94;100.00
38612;BME280;24368;52.156;20.788;2023-02-12T18:40:26;102380.20;;;1.03;100.00
38612;BME280;24368;52.156;20.788;2023-02-12T18:45:28;102372.45;;;1.07;100.00
38612;BME280;24368;52.156;20.788;2023-02-12T18:50:30;102365.27;;;1.10;100.00
38612;BME280;24368;52.156;20.788;2023-02-12T18:55:31;102360.00;;;1.23;100.00
38612;BME280;24368;52.156;20.788;2023-02-12T19:00:33;102360.02;;;1.30;100.00
38612;BME280;24368;52.156;20.788;2023-02-12T19:05:35;102362.90;;;1.43;100.00
38612;BME280;24368;52.156;20.788;2023-02-12T19:10:38;102359.59;;;1.49;100.00
38612;BME280;24368;52.156;20.788;2023-02-12T19:15:40;102363.37;;;1.51;100.00
38612;BME280;24368;52.156;20.788;2023-02-12T19:20:42;102351.02;;;1.51;100.00
38612;BME280;24368;52.156;20.788;2023-02-12T19:25:44;102345.90;;;1.59;100.00
38612;BME280;24368;52.156;20.788;2023-02-12T19:30:46;102338.48;;;1.63;100.00
38612;BME280;24368;52.156;20.788;2023-02-12T19:35:48;102344.67;;;1.71;100.00
38612;BME280;24368;52.156;20.788;2023-02-12T19:40:50;102335.72;;;1.80;100.00
38612;BME280;24368;52.156;20.788;2023-02-12T19:45:52;102328.17;;;1.77;100.00
38612;BME280;24368;52.156;20.788;2023-02-12T19:50:54;102314.30;;;1.76;100.00
38612;BME280;24368;52.156;20.788;2023-02-12T19:56:03;102310.16;;;1.85;100.00
38612;BME280;24368;52.156;20.788;2023-02-12T20:01:12;102302.03;;;1.94;100.00
38612;BME280;24368;52.156;20.788;2023-02-12T20:06:21;102293.86;;;2.05;100.00
38612;BME280;24368;52.156;20.788;2023-02-12T20:11:27;102301.94;;;2.03;100.00
38612;BME280;24368;52.156;20.788;2023-02-12T20:16:30;102304.22;;;2.07;100.00
38612;BME280;24368;52.156;20.788;2023-02-12T20:21:35;102309.70;;;2.09;100.00
38612;BME280;24368;52.156;20.788;2023-02-12T20:26:37;102300.83;;;2.14;100.00
38612;BME280;24368;52.156;20.788;2023-02-12T20:31:42;102292.68;;;2.14;100.00
38612;BME280;24368;52.156;20.788;2023-02-12T20:36:45;102291.55;;;2.16;100.00
38612;BME280;24368;52.156;20.788;2023-02-12T20:41:48;102292.02;;;2.23;100.00
38612;BME280;24368;52.156;20.788;2023-02-12T20:46:51;102292.52;;;2.29;100.00
38612;BME280;24368;52.156;20.788;2023-02-12T20:51:53;102291.56;;;2.27;100.00
38612;BME280;24368;52.156;20.788;2023-02-12T20:56:55;102283.44;;;2.30;100.00
38612;BME280;24368;52.156;20.788;2023-02-12T21:01:57;102280.85;;;2.35;100.00
38612;BME280;24368;52.156;20.788;2023-02-12T21:06:59;102283.21;;;2.36;100.00
38612;BME280;24368;52.156;20.788;2023-02-12T21:12:00;102276.75;;;2.32;100.00
38612;BME280;24368;52.156;20.788;2023-02-12T21:17:02;102277.33;;;2.31;100.00
38612;BME280;24368;52.156;20.788;2023-02-12T21:22:04;102275.32;;;2.29;100.00
38612;BME280;24368;52.156;20.788;2023-02-12T21:27:08;102268.27;;;2.31;100.00
38612;BME280;24368;52.156;20.788;2023-02-12T21:32:12;102271.27;;;2.26;100.00
38612;BME280;24368;52.156;20.788;2023-02-12T21:37:13;102268.84;;;2.25;100.00
38612;BME280;24368;52.156;20.788;2023-02-12T21:42:15;102267.27;;;2.30;100.00
38612;BME280;24368;52.156;20.788;2023-02-12T21:47:17;102270.19;;;2.31;100.00
38612;BME280;24368;52.156;20.788;2023-02-12T21:52:19;102267.41;;;2.26;100.00
38612;BME280;24368;52.156;20.788;2023-02-12T21:57:20;102267.41;;;2.26;100.00
38612;BME280;24368;52.156;20.788;2023-02-12T22:02:22;102266.48;;;2.33;100.00
38612;BME280;24368;52.156;20.788;2023-02-12T22:07:24;102258.34;;;2.32;100.00
38612;BME280;24368;52.156;20.788;2023-02-12T22:12:26;102248.38;;;2.37;100.00
38612;BME280;24368;52.156;20.788;2023-02-12T22:17:32;102251.20;;;2.42;100.00
38612;BME280;24368;52.156;20.788;2023-02-12T22:22:34;102244.45;;;2.45;100.00
38612;BME280;24368;52.156;20.788;2023-02-12T22:27:36;102241.90;;;2.48;100.00
38612;BME280;24368;52.156;20.788;2023-02-12T22:32:37;102238.40;;;2.54;100.00
38612;BME280;24368;52.156;20.788;2023-02-12T22:37:40;102241.59;;;2.61;100.00
38612;BME280;24368;52.156;20.788;2023-02-12T22:42:42;102243.52;;;2.65;100.00
38612;BME280;24368;52.156;20.788;2023-02-12T22:47:44;102240.89;;;2.71;100.00
38612;BME280;24368;52.156;20.788;2023-02-12T22:52:46;102234.16;;;2.70;100.00
38612;BME280;24368;52.156;20.788;2023-02-12T22:57:47;102227.06;;;2.74;100.00
38612;BME280;24368;52.156;20.788;2023-02-12T23:02:49;102217.90;;;2.72;100.00
38612;BME280;24368;52.156;20.788;2023-02-12T23:07:51;102207.90;;;2.83;100.00
38612;BME280;24368;52.156;20.788;2023-02-12T23:12:53;102199.17;;;2.92;100.00
38612;BME280;24368;52.156;20.788;2023-02-12T23:17:55;102192.56;;;2.93;100.00
38612;BME280;24368;52.156;20.788;2023-02-12T23:22:57;102183.61;;;2.90;100.00
38612;BME280;24368;52.156;20.788;2023-02-12T23:27:59;102178.51;;;2.91;100.00
38612;BME280;24368;52.156;20.788;2023-02-12T23:33:00;102174.15;;;2.92;100.00
38612;BME280;24368;52.156;20.788;2023-02-12T23:38:02;102174.90;;;2.94;100.00
38612;BME280;24368;52.156;20.788;2023-02-12T23:43:05;102172.73;;;2.96;100.00
38612;BME280;24368;52.156;20.788;2023-02-12T23:48:07;102161.41;;;2.97;100.00
38612;BME280;24368;52.156;20.788;2023-02-12T23:53:08;102151.73;;;2.95;100.00
38612;BME280;24368;52.156;20.788;2023-02-12T23:58:11;102140.15;;;2.97;100.00
